Time;durP1;ratioP1;P1;durP2;ratioP2;P2;SDS_P1;SDS_P2;PMS_P1;PMS_P2;Temp;Humidity;BMP_temperature;BMP_pressure;BME280_temperature;BME280_humidity;BME280_pressure;Samples;Min_cycle;Max_cycle;Signal;HPM_P1;HPM_P2
2022/12/18 00:00:02;;;;;;;38.20;17.60;;;;;;;-6.71;68.41;101794.34;10418234;28;20098;-79
2022/12/18 00:05:15;;;;;;;37.53;15.57;;;;;;;-6.66;67.97;101792.66;10441156;28;20088;-78
2022/12/18 00:10:21;;;;;;;33.20;13.90;;;;;;;-6.77;68.11;101800.38;10442564;28;20096;-81
2022/12/18 00:15:25;;;;;;;31.65;14.68;;;;;;;-6.67;67.79;101787.41;10420913;28;20095;-80
2022/12/18 00:20:28;;;;;;;33.42;13.50;;;;;;;-6.72;68.15;101794.31;10440561;28;20108;-82
2022/12/18 00:25:33;;;;;;;29.80;13.70;;;;;;;-6.74;68.04;101799.53;10446182;28;20084;-80
2022/12/18 00:30:37;;;;;;;32.50;14.43;;;;;;;-6.71;67.89;101810.03;10406793;28;20073;-79
2022/12/18 00:35:40;;;;;;;32.90;14.15;;;;;;;-6.69;67.75;101823.09;10418821;28;20069;-80
2022/12/18 00:40:45;;;;;;;30.67;13.23;;;;;;;-6.64;67.51;101804.00;10409244;28;20137;-80
2022/12/18 00:45:49;;;;;;;31.92;13.00;;;;;;;-6.78;67.55;101798.59;10430548;28;20034;-79
2022/12/18 00:50:52;;;;;;;29.80;12.07;;;;;;;-6.84;68.15;101800.25;10429685;28;20174;-80
2022/12/18 00:55:55;;;;;;;21.38;11.43;;;;;;;-6.70;67.59;101793.47;10412293;28;20448;-80
2022/12/18 01:01:00;;;;;;;30.65;13.02;;;;;;;-6.83;67.99;101794.16;10427219;28;20109;-78
2022/12/18 01:06:07;;;;;;;30.73;12.05;;;;;;;-6.90;67.99;101789.72;10425779;28;20052;-79
2022/12/18 01:11:11;;;;;;;25.42;12.18;;;;;;;-6.79;67.96;101795.97;10412487;28;20045;-81
2022/12/18 01:16:18;;;;;;;31.92;12.82;;;;;;;-6.92;67.81;101792.31;10445246;28;20052;-80
2022/12/18 01:21:23;;;;;;;30.55;14.05;;;;;;;-6.91;67.66;101794.09;10427149;28;20095;-80
2022/12/18 01:26:29;;;;;;;27.23;12.90;;;;;;;-7.08;68.03;101791.22;10439560;28;20095;-81
2022/12/18 01:31:35;;;;;;;25.90;11.65;;;;;;;-6.93;67.73;101790.56;10443640;28;20068;-81
2022/12/18 01:36:39;;;;;;;31.77;12.38;;;;;;;-6.98;67.51;101793.09;10424570;28;20050;-81
2022/12/18 01:47:05;;;;;;;28.58;12.63;;;;;;;-7.02;68.08;101803.47;10439896;28;20043;-80
2022/12/18 01:52:08;;;;;;;28.92;12.50;;;;;;;-7.06;68.01;101812.16;10431332;28;20434;-81
2022/12/18 01:57:12;;;;;;;27.63;12.77;;;;;;;-7.06;68.20;101805.19;10416167;28;20441;-78
2022/12/18 02:02:17;;;;;;;30.83;13.40;;;;;;;-7.09;67.86;101797.31;10411795;28;20041;-80
2022/12/18 02:07:32;;;;;;;29.45;12.82;;;;;;;-7.09;67.46;101789.47;10416313;28;20049;-80
2022/12/18 02:12:46;;;;;;;29.60;14.00;;;;;;;-7.13;67.82;101805.97;10413744;28;20065;-78
2022/12/18 02:17:56;;;;;;;36.22;15.27;;;;;;;-7.13;67.83;101795.53;10417911;28;20057;-80
2022/12/18 02:23:10;;;;;;;29.23;12.70;;;;;;;-7.08;67.69;101806.88;10419013;28;20103;-79
2022/12/18 02:28:17;;;;;;;31.90;12.27;;;;;;;-7.15;67.69;101805.06;10414932;28;20064;-81
2022/12/18 02:33:27;;;;;;;32.20;13.57;;;;;;;-7.21;67.79;101804.97;10418906;28;20049;-79
2022/12/18 02:38:33;;;;;;;28.80;13.38;;;;;;;-7.13;67.80;101794.63;10417134;28;20037;-80
2022/12/18 02:43:51;;;;;;;28.38;12.10;;;;;;;-7.03;68.09;101778.22;10420349;28;20049;-80
2022/12/18 02:49:02;;;;;;;32.67;12.98;;;;;;;-6.92;67.98;101788.81;10406510;28;20045;-80
2022/12/18 02:54:14;;;;;;;31.87;12.30;;;;;;;-6.99;68.05;101796.59;10400532;28;20095;-79
2022/12/18 02:59:25;;;;;;;34.05;13.68;;;;;;;-7.03;67.69;101797.38;10405467;28;20099;-80
2022/12/18 03:04:39;;;;;;;35.30;13.07;;;;;;;-7.06;67.90;101793.88;10405373;28;20056;-80
2022/12/18 03:09:49;;;;;;;34.58;12.88;;;;;;;-7.03;67.44;101796.50;10403976;28;20042;-80
2022/12/18 03:14:59;;;;;;;33.70;13.25;;;;;;;-7.06;67.82;101817.38;10404902;28;20048;-79
2022/12/18 03:20:08;;;;;;;31.80;13.50;;;;;;;-7.16;67.89;101805.03;10403991;28;20213;-80
2022/12/18 03:25:15;;;;;;;27.88;12.65;;;;;;;-7.13;68.14;101792.91;10410229;28;20101;-80
2022/12/18 03:30:20;;;;;;;29.73;12.77;;;;;;;-7.20;68.28;101799.75;10410761;28;20049;-80
2022/12/18 03:35:29;;;;;;;34.63;12.70;;;;;;;-7.21;68.37;101798.03;10410875;28;20050;-80
2022/12/18 03:40:45;;;;;;;29.58;13.00;;;;;;;-7.18;68.44;101789.34;10410235;28;20049;-80
2022/12/18 03:45:59;;;;;;;32.38;14.00;;;;;;;-7.16;68.25;101782.38;10413091;28;20041;-80
2022/12/18 03:51:09;;;;;;;32.15;12.43;;;;;;;-7.04;68.06;101807.84;10410120;28;20049;-81
2022/12/18 03:56:14;;;;;;;32.30;13.85;;;;;;;-6.90;68.30;101801.06;10411319;28;20041;-79
2022/12/18 04:01:24;;;;;;;30.35;11.85;;;;;;;-6.86;67.74;101801.97;10404114;28;20049;-80
2022/12/18 04:06:30;;;;;;;29.48;13.23;;;;;;;-6.92;67.60;101799.28;10403883;28;20057;-79
2022/12/18 04:11:33;;;;;;;30.90;12.68;;;;;;;-6.95;67.37;101797.50;10405983;28;20081;-80
2022/12/18 04:16:40;;;;;;;28.23;12.18;;;;;;;-7.08;67.31;101795.56;10412142;28;20041;-79
2022/12/18 04:21:50;;;;;;;29.08;12.77;;;;;;;-7.22;67.94;101796.25;10409191;28;20140;-79
2022/12/18 04:26:53;;;;;;;28.67;13.68;;;;;;;-7.25;68.47;101801.41;10410983;28;20056;-80
2022/12/18 04:32:04;;;;;;;30.48;13.35;;;;;;;-7.16;67.89;101808.50;10405846;28;20069;-80
2022/12/18 04:37:08;;;;;;;32.80;13.23;;;;;;;-7.17;68.29;101811.13;10408227;28;20051;-80
2022/12/18 04:42:11;;;;;;;31.23;12.40;;;;;;;-7.17;67.86;101812.00;10410099;28;20065;-80
2022/12/18 04:47:15;;;;;;;31.10;13.40;;;;;;;-7.25;68.20;101814.47;10427573;28;20508;-82
2022/12/18 04:52:18;;;;;;;25.48;11.45;;;;;;;-7.19;68.21;101811.09;10427098;28;20099;-80
2022/12/18 04:57:21;;;;;;;30.25;12.80;;;;;;;-7.15;68.10;101810.28;10410223;28;20095;-80
2022/12/18 05:02:25;;;;;;;29.17;12.32;;;;;;;-7.14;68.07;101812.03;10410998;28;20399;-79
2022/12/18 05:07:28;;;;;;;28.88;12.98;;;;;;;-7.12;68.04;101812.06;10428254;28;20398;-80
2022/12/18 05:12:32;;;;;;;26.98;11.43;;;;;;;-7.14;67.80;101808.53;10429125;28;20053;-80
2022/12/18 05:17:36;;;;;;;29.67;12.52;;;;;;;-7.22;67.98;101800.59;10411390;28;20061;-80
2022/12/18 05:22:39;;;;;;;31.25;13.02;;;;;;;-7.26;67.93;101799.69;10426587;28;20103;-80
2022/12/18 05:27:42;;;;;;;31.23;13.68;;;;;;;-7.37;68.04;101785.59;10428120;28;20060;-81
2022/12/18 05:32:46;;;;;;;30.35;13.45;;;;;;;-7.38;68.21;101790.78;10426753;28;20084;-80
2022/12/18 05:37:49;;;;;;;29.25;12.25;;;;;;;-7.47;67.94;101796.72;10404047;28;20042;-80
2022/12/18 05:42:52;;;;;;;30.27;12.35;;;;;;;-7.44;68.36;101794.16;10426176;28;20053;-81
2022/12/18 05:47:56;;;;;;;33.72;14.30;;;;;;;-7.47;68.37;101797.59;10407619;28;20143;-80
2022/12/18 05:52:59;;;;;;;37.63;14.07;;;;;;;-7.42;68.89;101789.84;10427263;28;20047;-80
2022/12/18 05:58:03;;;;;;;30.23;12.80;;;;;;;-7.44;69.13;101792.44;10411069;28;20049;-79
2022/12/18 06:03:07;;;;;;;25.60;12.05;;;;;;;-7.31;69.01;101790.91;10416665;28;20049;-80
2022/12/18 06:08:11;;;;;;;31.45;14.73;;;;;;;-7.32;68.74;101794.38;10403892;28;20061;-81
2022/12/18 06:13:14;;;;;;;32.15;12.77;;;;;;;-7.33;68.96;101799.56;10406280;28;20049;-82
2022/12/18 06:18:18;;;;;;;32.92;13.00;;;;;;;-7.30;68.22;101813.53;10406233;28;20072;-80
2022/12/18 06:23:21;;;;;;;31.52;12.77;;;;;;;-7.33;68.54;101807.38;10407076;28;20053;-80
2022/12/18 06:28:24;;;;;;;27.33;10.77;;;;;;;-7.42;69.01;101816.84;10407030;28;20057;-80
2022/12/18 06:33:29;;;;;;;34.25;13.15;;;;;;;-7.42;69.06;101816.84;10433765;28;20237;-79
2022/12/18 06:38:32;;;;;;;32.80;13.05;;;;;;;-7.35;69.15;101822.16;10435028;28;20034;-80
2022/12/18 06:43:35;;;;;;;33.53;14.20;;;;;;;-7.34;69.20;101823.94;10431502;28;20045;-81
2022/12/18 06:48:40;;;;;;;33.47;12.60;;;;;;;-7.29;68.89;101832.72;10428699;28;20041;-80
2022/12/18 06:53:43;;;;;;;27.75;12.50;;;;;;;-7.28;68.64;101850.13;10409033;28;20057;-79
2022/12/18 06:58:46;;;;;;;28.10;12.50;;;;;;;-7.30;68.38;101850.09;10433274;28;20052;-80
2022/12/18 07:03:54;;;;;;;31.27;13.68;;;;;;;-7.29;68.07;101841.41;10436149;28;20046;-80
2022/12/18 07:08:57;;;;;;;28.60;13.20;;;;;;;-7.28;68.31;101851.00;10406196;28;20518;-80
2022/12/18 07:14:00;;;;;;;33.15;12.52;;;;;;;-7.35;68.08;101866.53;10445028;28;20046;-80
2022/12/18 07:19:04;;;;;;;29.80;13.40;;;;;;;-7.33;68.57;101857.88;10453303;28;20111;-79
2022/12/18 07:24:08;;;;;;;30.48;14.13;;;;;;;-7.38;68.87;101853.44;10438903;28;20053;-81
2022/12/18 07:29:11;;;;;;;36.72;15.10;;;;;;;-7.34;68.93;101835.25;10433804;28;20395;-80
2022/12/18 07:34:15;;;;;;;33.72;15.85;;;;;;;-7.47;69.07;101833.28;10435560;28;20040;-80
2022/12/18 07:39:18;;;;;;;28.00;12.88;;;;;;;-7.37;69.59;101821.28;10399414;28;20037;-80
2022/12/18 07:44:21;;;;;;;77.50;30.63;;;;;;;-6.84;71.63;101826.38;10435124;28;20042;-80
2022/12/18 07:49:25;;;;;;;22.67;15.52;;;;;;;-5.99;70.05;101836.13;10434121;28;20045;-80
2022/12/18 07:54:29;;;;;;;34.00;17.65;;;;;;;-5.83;67.40;101835.44;10434271;28;20041;-80
2022/12/18 07:59:32;;;;;;;39.15;19.55;;;;;;;-5.46;67.17;101828.78;10442073;28;20053;-80
2022/12/18 08:04:36;;;;;;;46.13;24.25;;;;;;;-5.43;64.97;101839.28;10428646;28;20057;-80
2022/12/18 08:09:39;;;;;;;50.08;26.15;;;;;;;-5.48;64.51;101840.13;10431268;28;20049;-80
2022/12/18 08:14:42;;;;;;;45.65;22.35;;;;;;;-5.26;64.53;101839.41;10414585;28;20100;-80
2022/12/18 08:19:46;;;;;;;35.20;17.10;;;;;;;-5.16;63.39;101826.38;10436027;28;20041;-81
2022/12/18 08:24:49;;;;;;;29.08;15.07;;;;;;;-4.96;63.04;101814.28;10437369;28;20089;-81
2022/12/18 08:29:51;;;;;;;30.92;13.73;;;;;;;-4.93;62.83;101808.19;10435910;28;20050;-81
2022/12/18 08:34:56;;;;;;;28.70;13.35;;;;;;;-4.65;62.44;101791.72;10418084;28;20410;-81
2022/12/18 08:39:59;;;;;;;29.48;12.60;;;;;;;-4.39;61.78;101794.44;10437104;28;20088;-81
2022/12/18 08:45:02;;;;;;;27.33;12.95;;;;;;;-3.82;60.92;101797.16;10424699;28;20038;-81
2022/12/18 08:50:07;;;;;;;26.40;13.40;;;;;;;-3.49;59.44;101798.06;10419920;28;20053;-81
2022/12/18 08:55:10;;;;;;;26.88;12.57;;;;;;;-3.80;59.69;101807.69;10435529;28;20072;-82
2022/12/18 09:00:14;;;;;;;24.27;12.93;;;;;;;-3.47;59.86;101794.56;10412484;28;20053;-82
2022/12/18 09:05:19;;;;;;;37.80;16.23;;;;;;;-3.47;59.70;101797.19;10426345;28;20073;-82
2022/12/18 09:10:23;;;;;;;36.05;16.23;;;;;;;-3.25;59.27;101800.66;10411906;28;20045;-82
2022/12/18 09:15:25;;;;;;;28.48;13.88;;;;;;;-3.44;59.21;101796.31;10423654;28;20037;-81
2022/12/18 09:20:30;;;;;;;27.10;11.93;;;;;;;-3.39;60.10;101797.19;10395220;28;20045;-82
2022/12/18 09:25:35;;;;;;;25.42;12.10;;;;;;;-3.28;59.73;101790.16;10393831;28;20049;-82
2022/12/18 09:30:38;;;;;;;25.80;12.18;;;;;;;-3.16;60.03;101791.88;10403726;28;20056;-82
2022/12/18 09:35:44;;;;;;;20.30;10.63;;;;;;;-3.52;60.15;101792.81;10436320;28;20045;-81
2022/12/18 09:40:50;;;;;;;26.48;12.35;;;;;;;-3.42;61.11;101797.19;10421095;28;20132;-82
2022/12/18 09:45:56;;;;;;;26.10;11.70;;;;;;;-2.94;61.00;101797.97;10428350;28;20094;-82
2022/12/18 09:51:04;;;;;;;28.40;13.65;;;;;;;-2.37;59.97;101801.28;10403323;28;20053;-83
2022/12/18 09:56:13;;;;;;;23.08;11.73;;;;;;;-1.64;58.19;101799.06;10406035;28;20037;-78
2022/12/18 10:01:21;;;;;;;21.70;12.10;;;;;;;-0.95;56.30;101779.97;10425271;28;20553;-81
2022/12/18 10:06:38;;;;;;;22.70;11.18;;;;;;;-0.92;54.71;101781.69;10422494;28;20124;-81
2022/12/18 10:11:48;;;;;;;16.80;8.95;;;;;;;-1.58;55.43;101803.44;10419159;28;20060;-81
2022/12/18 10:17:00;;;;;;;18.48;9.10;;;;;;;-1.62;56.71;101797.28;10418201;28;20498;-81
2022/12/18 10:22:17;;;;;;;17.38;9.02;;;;;;;-0.93;55.74;101782.56;10408782;28;20691;-81
2022/12/18 10:27:26;;;;;;;16.08;8.35;;;;;;;-0.91;55.17;101763.19;10412450;28;20072;-82
2022/12/18 10:32:30;;;;;;;16.13;8.45;;;;;;;-0.88;55.64;101731.50;10401893;28;20426;-81
2022/12/18 10:37:35;;;;;;;19.17;9.00;;;;;;;-0.96;55.90;101718.41;10408690;28;20045;-80
2022/12/18 10:42:39;;;;;;;14.60;7.03;;;;;;;-0.69;54.99;101695.19;10403040;28;20045;-81
2022/12/18 10:47:44;;;;;;;12.88;7.13;;;;;;;-0.48;54.21;101707.22;10424034;28;20049;-81
2022/12/18 10:52:56;;;;;;;13.73;7.18;;;;;;;0.29;53.17;101706.91;10420906;28;20041;-81
2022/12/18 10:58:16;;;;;;;14.13;7.23;;;;;;;0.25;52.33;101714.91;10419787;28;20115;-81
2022/12/18 11:03:32;;;;;;;14.32;7.40;;;;;;;0.17;51.76;101709.78;10419134;28;20694;-81
2022/12/18 11:08:37;;;;;;;11.75;6.95;;;;;;;0.17;52.05;101692.13;10403349;28;20061;-81
2022/12/18 11:13:41;;;;;;;9.70;6.05;;;;;;;0.27;51.64;101671.69;10423984;28;20050;-81
2022/12/18 11:18:44;;;;;;;13.07;7.47;;;;;;;-0.22;52.32;101669.91;10412837;28;20037;-81
2022/12/18 11:23:51;;;;;;;14.75;7.10;;;;;;;-0.52;53.58;101648.34;10417643;28;20037;-81
2022/12/18 11:29:10;;;;;;;15.07;7.43;;;;;;;-0.87;53.80;101640.06;10425017;28;20128;-81
2022/12/18 11:34:21;;;;;;;16.33;6.93;;;;;;;-0.58;53.89;101644.91;10399395;28;20128;-82
2022/12/18 11:39:38;;;;;;;18.35;7.63;;;;;;;-0.48;53.44;101635.97;10400391;28;20068;-78
2022/12/18 11:44:48;;;;;;;13.82;7.22;;;;;;;-1.02;53.54;101630.56;10423135;28;20476;-81
2022/12/18 11:49:52;;;;;;;14.70;7.63;;;;;;;-1.35;54.39;101632.72;10429072;28;20037;-80
2022/12/18 11:55:00;;;;;;;16.27;7.00;;;;;;;-1.64;56.09;101617.25;10412598;28;20103;-77
2022/12/18 12:00:12;;;;;;;15.93;7.20;;;;;;;-1.66;56.65;101613.75;10431208;28;20084;-80
2022/12/18 12:05:29;;;;;;;20.17;8.83;;;;;;;-1.42;55.93;101609.97;10421630;28;20066;-81
2022/12/18 12:10:45;;;;;;;14.35;8.40;;;;;;;-1.22;55.49;101607.09;10427531;28;20290;-80
2022/12/18 12:16:00;;;;;;;16.27;8.80;;;;;;;-1.38;56.07;101602.88;10430294;28;20041;-81
2022/12/18 12:21:08;;;;;;;15.27;7.53;;;;;;;-1.48;55.99;101589.84;10428575;28;20037;-83
2022/12/18 12:26:22;;;;;;;17.90;8.35;;;;;;;-1.65;55.84;101578.59;10455344;28;20045;-80
2022/12/18 12:31:39;;;;;;;13.27;7.13;;;;;;;-1.51;57.08;101560.88;10430733;28;20083;-80
2022/12/18 12:36:53;;;;;;;16.65;7.93;;;;;;;-1.60;56.51;101560.97;10421978;28;20092;-83
2022/12/18 12:47:25;;;;;;;12.90;7.75;;;;;;;-1.37;56.25;101573.88;10421524;28;20095;-81
2022/12/18 12:52:33;;;;;;;13.57;7.93;;;;;;;-1.63;56.28;101576.81;10428238;28;20136;-80
2022/12/18 12:57:40;;;;;;;16.15;7.85;;;;;;;-1.69;57.01;101584.81;10430732;28;20120;-80
2022/12/18 13:02:52;;;;;;;17.33;7.75;;;;;;;-1.82;56.98;101570.88;10413858;28;20076;-81
2022/12/18 13:08:00;;;;;;;15.10;7.93;;;;;;;-1.83;56.76;101558.59;10409244;28;20079;-78
2022/12/18 13:13:12;;;;;;;16.23;7.82;;;;;;;-1.84;57.36;101548.94;10404102;28;20068;-78
2022/12/18 13:18:22;;;;;;;14.07;7.15;;;;;;;-1.93;57.73;101543.78;10420033;28;20502;-80
2022/12/18 13:23:39;;;;;;;19.38;9.52;;;;;;;-1.88;57.17;101532.31;10409610;28;20041;-78
2022/12/18 13:28:55;;;;;;;12.05;7.18;;;;;;;-1.71;57.50;101528.59;10424239;28;20096;-80
2022/12/18 13:34:16;;;;;;;14.02;6.97;;;;;;;-1.84;57.56;101517.34;10427562;28;20045;-79
2022/12/18 13:39:34;;;;;;;17.40;7.13;;;;;;;-1.90;57.46;101494.56;10412606;28;20513;-79
2022/12/18 13:44:41;;;;;;;14.80;8.55;;;;;;;-1.85;57.78;101490.13;10346797;28;20065;-78
2022/12/18 13:49:45;;;;;;;14.57;6.88;;;;;;;-1.82;57.42;101481.31;10373200;28;20037;-80
2022/12/18 13:54:53;;;;;;;19.55;9.70;;;;;;;-1.83;57.51;101484.84;10376961;28;20046;-77
2022/12/18 14:00:17;;;;;;;16.55;7.40;;;;;;;-1.63;56.65;101485.47;10382931;28;20052;-80
2022/12/18 14:05:23;;;;;;;15.45;7.40;;;;;;;-1.81;56.75;101477.81;10385465;28;20558;-78
2022/12/18 14:10:26;;;;;;;18.15;7.97;;;;;;;-1.71;56.72;101471.50;10387501;28;20056;-78
2022/12/18 14:15:51;;;;;;;14.10;7.57;;;;;;;-1.85;57.00;101484.00;10369884;28;20137;-79
2022/12/18 14:20:59;;;;;;;14.63;7.38;;;;;;;-1.84;56.69;101469.91;10384354;28;20038;-78
2022/12/18 14:26:04;;;;;;;17.38;9.80;;;;;;;-1.70;56.77;101475.00;10385937;28;20042;-79
2022/12/18 14:31:19;;;;;;;11.20;5.95;;;;;;;-1.73;56.46;101481.19;10384512;28;20049;-78
2022/12/18 14:36:24;;;;;;;13.90;8.20;;;;;;;-1.75;56.62;101459.28;10376109;28;20056;-77
2022/12/18 14:41:28;;;;;;;11.27;6.05;;;;;;;-1.90;56.72;101475.28;10375819;28;20085;-78
2022/12/18 14:46:36;;;;;;;13.57;6.00;;;;;;;-2.00;57.09;101464.00;10359400;28;20491;-78
2022/12/18 14:51:39;;;;;;;11.20;6.03;;;;;;;-1.85;56.51;101457.66;10378058;28;20070;-79
2022/12/18 14:56:45;;;;;;;14.88;6.45;;;;;;;-1.88;56.33;101449.78;10336152;28;20058;-79
2022/12/18 15:01:57;;;;;;;15.20;8.63;;;;;;;-1.89;56.42;101446.28;10374147;28;20045;-79
2022/12/18 15:07:12;;;;;;;9.25;6.35;;;;;;;-1.78;55.97;101442.63;10393900;28;20026;-78
2022/12/18 15:12:26;;;;;;;15.20;7.97;;;;;;;-1.80;55.49;101452.34;10398664;28;20050;-78
2022/12/18 15:17:31;;;;;;;13.50;7.05;;;;;;;-1.92;55.55;101433.16;10373428;28;20049;-79
2022/12/18 15:22:36;;;;;;;8.90;5.47;;;;;;;-1.86;55.72;101435.72;10377818;28;20091;-79
2022/12/18 15:27:39;;;;;;;14.93;7.72;;;;;;;-1.83;55.81;101432.16;10389408;28;20045;-78
2022/12/18 15:32:47;;;;;;;19.27;8.65;;;;;;;-1.77;55.52;101413.63;10389482;28;20529;-78
2022/12/18 15:37:51;;;;;;;15.20;7.20;;;;;;;-1.93;55.79;101412.97;10388269;28;20121;-78
2022/12/18 15:48:22;;;;;;;14.52;7.80;;;;;;;-1.68;55.40;101394.19;10449102;28;20037;-79
2022/12/18 15:53:28;;;;;;;15.25;7.60;;;;;;;-1.91;55.60;101387.47;10453827;28;20118;-79
2022/12/18 15:58:32;;;;;;;19.70;9.15;;;;;;;-1.80;55.74;101365.41;10433382;28;20167;-79
2022/12/18 16:03:37;;;;;;;15.93;9.18;;;;;;;-1.62;55.16;101373.91;10439981;28;20506;-79
2022/12/18 16:08:41;;;;;;;15.07;8.00;;;;;;;-1.59;55.50;101385.28;10443237;28;20049;-78
2022/12/18 16:13:44;;;;;;;14.95;7.38;;;;;;;-1.69;55.31;101369.63;10437329;28;20829;-79
2022/12/18 16:18:49;;;;;;;17.02;8.68;;;;;;;-1.87;55.48;101357.56;10440001;28;20049;-79
2022/12/18 16:23:51;;;;;;;16.38;7.53;;;;;;;-1.69;55.46;101335.38;10424793;28;20052;-79
2022/12/18 16:28:55;;;;;;;16.73;9.00;;;;;;;-1.62;55.41;101342.28;10446829;28;20056;-79
2022/12/18 16:34:19;;;;;;;18.33;8.25;;;;;;;-1.82;56.26;101336.44;10437324;28;20110;-79
2022/12/18 16:39:24;;;;;;;14.07;7.45;;;;;;;-1.77;55.87;101331.09;10403237;28;20525;-78
2022/12/18 16:44:28;;;;;;;19.00;8.68;;;;;;;-1.64;55.57;101327.41;10447428;28;20091;-78
2022/12/18 16:49:32;;;;;;;17.95;8.88;;;;;;;-1.63;55.23;101330.00;10433608;28;20482;-78
2022/12/18 16:54:35;;;;;;;16.80;8.38;;;;;;;-1.82;55.93;101311.88;10462820;28;20095;-79
2022/12/18 16:59:38;;;;;;;22.73;9.70;;;;;;;-1.72;55.70;101311.69;10427411;28;20033;-79
2022/12/18 17:04:44;;;;;;;20.13;8.68;;;;;;;-1.84;55.53;101298.69;10431170;28;20582;-78
2022/12/18 17:09:47;;;;;;;17.25;8.25;;;;;;;-1.92;56.02;101284.78;10426998;28;20041;-79
2022/12/18 17:14:50;;;;;;;14.85;8.98;;;;;;;-1.65;55.53;101284.34;10434895;28;20056;-78
2022/12/18 17:19:55;;;;;;;17.58;8.45;;;;;;;-1.87;55.68;101283.81;10434967;28;20045;-79
2022/12/18 17:24:58;;;;;;;19.95;9.68;;;;;;;-1.54;55.23;101299.97;10412099;28;20122;-78
2022/12/18 17:30:01;;;;;;;16.52;9.30;;;;;;;-1.75;55.41;101258.19;10433678;28;20041;-79
2022/12/18 17:35:06;;;;;;;19.15;8.50;;;;;;;-1.79;55.22;101261.75;10434635;28;20095;-78
2022/12/18 17:40:10;;;;;;;19.55;9.77;;;;;;;-1.64;54.77;101258.91;10442938;28;20124;-78
2022/12/18 17:45:13;;;;;;;21.33;10.95;;;;;;;-1.64;54.96;101246.59;10420110;28;20072;-79
2022/12/18 17:50:18;;;;;;;22.30;10.85;;;;;;;-1.71;55.17;101249.34;10424586;28;20036;-79
2022/12/18 17:55:21;;;;;;;21.70;10.77;;;;;;;-1.43;54.51;101242.69;10423381;28;20470;-79
2022/12/18 18:00:24;;;;;;;20.00;10.25;;;;;;;-1.57;54.14;101238.56;10410139;28;20053;-78
2022/12/18 18:05:28;;;;;;;18.17;11.30;;;;;;;-1.63;53.98;101237.78;10414061;28;20117;-78
2022/12/18 18:10:32;;;;;;;25.63;12.50;;;;;;;-1.43;53.69;101241.81;10426816;28;20045;-76
2022/12/18 18:15:39;;;;;;;21.40;11.50;;;;;;;-1.50;54.44;101221.75;10438586;28;20042;-79
2022/12/18 18:20:44;;;;;;;24.65;11.93;;;;;;;-1.50;54.72;101220.00;10442111;28;20044;-79
2022/12/18 18:25:51;;;;;;;25.63;11.57;;;;;;;-1.75;54.62;101203.75;10424792;28;20055;-79
2022/12/18 18:30:55;;;;;;;24.77;11.32;;;;;;;-1.58;54.81;101223.66;10414709;28;20123;-79
2022/12/18 18:35:59;;;;;;;23.42;11.88;;;;;;;-1.54;54.84;101239.38;10406966;28;20109;-79
2022/12/18 18:41:04;;;;;;;22.60;10.80;;;;;;;-1.56;54.72;101224.47;10411279;28;20049;-81
2022/12/18 18:46:06;;;;;;;19.98;9.82;;;;;;;-1.69;55.07;101226.47;10417263;28;20041;-79
2022/12/18 18:51:13;;;;;;;23.65;11.63;;;;;;;-1.55;55.53;101231.50;10422483;28;20061;-79
2022/12/18 18:56:26;;;;;;;21.58;11.07;;;;;;;-1.54;55.18;101226.19;10427479;28;20069;-79
2022/12/18 19:01:49;;;;;;;31.90;12.15;;;;;;;-1.82;55.62;101214.41;10418789;28;20048;-79
2022/12/18 19:06:53;;;;;;;26.65;12.35;;;;;;;-1.48;55.13;101235.75;10429085;28;20052;-79
2022/12/18 19:17:18;;;;;;;30.60;14.77;;;;;;;-1.36;55.09;101237.34;10412313;28;20112;-79
2022/12/18 19:22:25;;;;;;;26.83;13.60;;;;;;;-1.54;55.84;101244.66;10411005;28;20076;-79
2022/12/18 19:27:28;;;;;;;30.02;14.55;;;;;;;-1.57;55.62;101244.69;10426702;28;20045;-79
2022/12/18 19:32:31;;;;;;;33.00;14.32;;;;;;;-1.56;56.36;101242.94;10410177;28;20378;-79
2022/12/18 19:37:35;;;;;;;34.65;15.45;;;;;;;-1.69;57.52;101232.63;10430437;28;20109;-79
2022/12/18 19:42:38;;;;;;;32.17;14.50;;;;;;;-1.56;57.66;101238.56;10429580;28;20093;-79
2022/12/18 19:47:41;;;;;;;29.83;14.65;;;;;;;-1.55;58.13;101237.66;10429647;28;20046;-79
2022/12/18 19:52:45;;;;;;;26.48;12.70;;;;;;;-1.55;59.05;101250.81;10410931;28;20061;-80
2022/12/18 19:57:48;;;;;;;32.40;14.52;;;;;;;-1.50;58.98;101245.47;10429355;28;20490;-80
2022/12/18 20:02:51;;;;;;;33.80;14.85;;;;;;;-1.23;58.88;101237.09;10429915;28;20045;-79
2022/12/18 20:08:01;;;;;;;34.55;16.48;;;;;;;-1.19;58.45;101246.66;10409971;28;20061;-78
2022/12/18 20:13:05;;;;;;;32.58;15.15;;;;;;;-1.40;58.32;101254.94;10428172;28;20038;-80
2022/12/18 20:18:09;;;;;;;31.60;16.17;;;;;;;-1.56;59.19;101246.47;10428977;28;20046;-79
2022/12/18 20:23:13;;;;;;;30.13;14.93;;;;;;;-1.87;60.29;101231.13;10428818;28;20473;-80
2022/12/18 20:28:16;;;;;;;38.67;17.40;;;;;;;-2.19;61.27;101236.91;10410850;28;20046;-79
2022/12/18 20:33:19;;;;;;;34.63;16.55;;;;;;;-2.11;61.31;101231.53;10421858;28;20041;-79
2022/12/18 20:38:23;;;;;;;34.70;15.93;;;;;;;-1.98;61.06;101230.44;10445111;28;20083;-78
2022/12/18 20:43:26;;;;;;;33.13;15.05;;;;;;;-2.04;61.07;101233.19;10422037;28;20103;-79
2022/12/18 20:48:30;;;;;;;37.22;16.67;;;;;;;-1.87;61.12;101238.19;10408927;28;20045;-78
2022/12/18 20:53:35;;;;;;;35.10;17.38;;;;;;;-1.93;62.08;101233.88;10427169;28;20050;-79
2022/12/18 20:58:40;;;;;;;43.55;19.98;;;;;;;-1.89;61.98;101234.72;10428171;28;20049;-78
2022/12/18 21:03:44;;;;;;;38.60;18.88;;;;;;;-2.07;62.08;101228.81;10410741;28;20049;-79
2022/12/18 21:08:49;;;;;;;41.33;18.00;;;;;;;-1.88;61.85;101233.81;10409339;28;20414;-79
2022/12/18 21:13:52;;;;;;;40.05;16.83;;;;;;;-2.04;62.40;101227.03;10420556;28;20479;-79
2022/12/18 21:18:55;;;;;;;36.85;16.60;;;;;;;-2.13;62.56;101221.03;10398516;28;20072;-79
2022/12/18 21:24:00;;;;;;;39.67;18.77;;;;;;;-2.05;61.71;101210.38;10409757;28;20042;-78
2022/12/18 21:29:05;;;;;;;32.85;16.52;;;;;;;-1.96;62.14;101215.50;10388151;28;20042;-79
2022/12/18 21:34:10;;;;;;;38.38;16.95;;;;;;;-2.01;62.14;101203.28;10383866;28;20068;-78
2022/12/18 21:39:15;;;;;;;32.10;14.98;;;;;;;-1.98;62.42;101203.25;10405314;28;20069;-79
2022/12/18 21:44:19;;;;;;;38.35;15.10;;;;;;;-2.02;62.92;101209.47;10419269;23;20041;-78
2022/12/18 21:49:23;;;;;;;22.00;9.85;;;;;;;-1.81;62.49;101201.22;10325898;28;20094;-78
2022/12/18 21:54:29;;;;;;;36.22;16.25;;;;;;;-1.76;62.46;101194.09;10330102;28;20106;-82
2022/12/18 21:59:34;;;;;;;34.85;14.77;;;;;;;-1.56;61.81;101195.50;10328768;28;20042;-82
2022/12/18 22:04:37;;;;;;;37.40;17.58;;;;;;;-1.80;62.23;101189.78;10299984;28;20075;-78
2022/12/18 22:09:42;;;;;;;32.20;15.73;;;;;;;-1.78;62.13;101192.38;10312315;28;20078;-78
2022/12/18 22:14:45;;;;;;;39.17;18.27;;;;;;;-1.83;62.18;101194.25;10313763;28;20051;-79
2022/12/18 22:19:49;;;;;;;35.33;16.60;;;;;;;-1.77;62.31;101189.72;10313686;28;20043;-78
2022/12/18 22:24:53;;;;;;;41.00;16.55;;;;;;;-1.74;62.48;101179.13;10295046;28;20054;-78
2022/12/18 22:30:05;;;;;;;34.97;17.25;;;;;;;-1.91;62.55;101192.59;10313487;28;20476;-79
2022/12/18 22:35:09;;;;;;;45.70;17.88;;;;;;;-1.63;62.64;101181.56;10315564;28;20051;-78
2022/12/18 22:40:27;;;;;;;44.72;20.00;;;;;;;-1.57;62.42;101176.19;10323592;28;20053;-79
2022/12/18 22:45:30;;;;;;;49.33;20.38;;;;;;;-1.53;62.54;101167.34;10324456;28;20045;-79
2022/12/18 22:50:35;;;;;;;42.53;17.02;;;;;;;-1.62;63.08;101160.47;10298171;28;20047;-79
2022/12/18 22:55:39;;;;;;;35.45;16.95;;;;;;;-1.66;63.06;101147.38;10311532;28;20101;-77
2022/12/18 23:00:42;;;;;;;41.78;19.50;;;;;;;-1.67;63.61;101153.56;10316442;28;20045;-78
2022/12/18 23:05:46;;;;;;;41.13;15.32;;;;;;;-1.54;63.82;101149.78;10322522;28;20055;-78
2022/12/18 23:10:53;;;;;;;35.35;15.40;;;;;;;-1.60;65.37;101151.66;10320376;28;20050;-78
2022/12/18 23:15:56;;;;;;;41.30;17.65;;;;;;;-1.63;66.59;101153.47;10317643;28;20102;-78
2022/12/18 23:21:04;;;;;;;40.55;16.90;;;;;;;-1.59;67.75;101148.13;10299447;28;20051;-78